createdAt,value
2022-10-13T00:02:00.939Z,51.80
2022-10-13T00:05:10.449Z,51.70
2022-10-13T00:08:19.890Z,51.70
2022-10-13T00:11:28.677Z,51.70
2022-10-13T00:14:37.821Z,51.70
2022-10-13T00:17:45.526Z,51.70
2022-10-13T00:20:53.531Z,51.70
2022-10-13T00:24:01.200Z,51.60
2022-10-13T00:27:08.939Z,51.60
2022-10-13T00:30:18.190Z,51.60
2022-10-13T00:33:26.849Z,51.60
2022-10-13T00:36:34.748Z,51.60
2022-10-13T00:39:42.842Z,51.60
2022-10-13T00:42:50.734Z,51.60
2022-10-13T00:46:00.144Z,51.60
2022-10-13T00:49:09.221Z,51.50
2022-10-13T00:52:17.667Z,51.50
2022-10-13T00:55:27.784Z,51.40
2022-10-13T00:58:37.050Z,51.40
2022-10-13T01:01:46.561Z,51.40
2022-10-13T01:04:54.570Z,51.40
2022-10-13T01:08:02.383Z,51.40
2022-10-13T01:11:24.674Z,51.40
2022-10-13T01:14:35.186Z,51.40
2022-10-13T01:17:48.430Z,51.30
2022-10-13T01:21:07.524Z,51.30
2022-10-13T01:24:28.286Z,51.40
2022-10-13T01:27:53.760Z,51.30
2022-10-13T01:31:05.286Z,51.30
2022-10-13T01:34:17.221Z,51.30
2022-10-13T01:37:28.602Z,51.20
2022-10-13T01:40:40.488Z,51.20
2022-10-13T01:43:50.385Z,51.20
2022-10-13T01:46:59.633Z,51.20
2022-10-13T01:50:08.833Z,51.20
2022-10-13T01:53:19.011Z,51.20
2022-10-13T01:56:33.249Z,51.10
2022-10-13T01:59:41.041Z,51.10
2022-10-13T02:02:56.946Z,51.10
2022-10-13T02:06:10.886Z,51.10
2022-10-13T02:09:20.137Z,51.00
2022-10-13T02:12:30.842Z,51.00
2022-10-13T02:15:39.854Z,51.00
2022-10-13T02:18:50.941Z,51.00
2022-10-13T02:21:58.997Z,51.00
2022-10-13T02:25:08.405Z,51.00
2022-10-13T02:28:16.590Z,51.00
2022-10-13T02:31:24.452Z,51.00
2022-10-13T02:34:33.993Z,51.00
2022-10-13T02:37:41.945Z,50.90
2022-10-13T02:40:51.256Z,50.90
2022-10-13T02:44:00.576Z,50.90
2022-10-13T02:47:15.311Z,50.90
2022-10-13T02:50:24.491Z,50.90
2022-10-13T02:53:32.770Z,50.90
2022-10-13T02:56:41.704Z,50.90
2022-10-13T02:59:49.867Z,50.90
2022-10-13T03:02:58.096Z,50.90
2022-10-13T03:06:08.304Z,50.90
2022-10-13T03:09:16.500Z,50.90
2022-10-13T03:12:25.141Z,50.90
2022-10-13T03:15:33.156Z,50.90
2022-10-13T03:18:43.541Z,50.90
2022-10-13T03:21:52.696Z,50.90
2022-10-13T03:25:00.712Z,50.90
2022-10-13T03:28:08.574Z,51.00
2022-10-13T03:31:17.718Z,51.00
2022-10-13T03:34:25.889Z,51.00
2022-10-13T03:37:35.572Z,51.00
2022-10-13T03:40:43.821Z,51.00
2022-10-13T03:43:51.919Z,51.00
2022-10-13T03:47:00.019Z,51.00
2022-10-13T03:50:09.014Z,51.00
2022-10-13T03:53:18.237Z,51.10
2022-10-13T03:56:27.450Z,50.90
2022-10-13T03:59:37.004Z,50.90
2022-10-13T04:02:45.366Z,50.90
2022-10-13T04:05:53.352Z,50.90
2022-10-13T04:09:03.713Z,50.90
2022-10-13T04:12:12.112Z,50.90
2022-10-13T04:15:19.936Z,50.90
2022-10-13T04:18:28.119Z,50.90
2022-10-13T04:21:36.405Z,50.80
2022-10-13T04:24:45.530Z,50.80
2022-10-13T04:27:53.564Z,50.80
2022-10-13T04:31:01.685Z,50.80
2022-10-13T04:34:09.578Z,50.80
2022-10-13T04:37:17.443Z,50.70
2022-10-13T04:40:26.782Z,50.70
2022-10-13T04:43:34.775Z,50.70
2022-10-13T04:46:43.416Z,50.70
2022-10-13T04:49:51.458Z,50.60
2022-10-13T04:52:59.976Z,50.60
2022-10-13T04:56:10.294Z,50.60
2022-10-13T04:59:18.372Z,50.60
2022-10-13T05:02:26.677Z,50.60
2022-10-13T05:05:36.680Z,50.60
2022-10-13T05:08:44.583Z,50.50
2022-10-13T05:11:56.161Z,50.50
2022-10-13T05:15:04.755Z,50.50
2022-10-13T05:18:12.833Z,50.50
2022-10-13T05:21:22.384Z,50.50
2022-10-13T05:24:36.599Z,50.70
2022-10-13T05:27:46.346Z,50.50
2022-10-13T05:30:54.130Z,50.50
2022-10-13T05:34:02.273Z,50.50
2022-10-13T05:37:10.260Z,51.60
2022-10-13T05:40:18.254Z,51.70
2022-10-13T05:43:27.438Z,51.60
2022-10-13T05:46:35.577Z,51.50
2022-10-13T05:49:43.764Z,51.70
2022-10-13T05:52:51.960Z,51.70
2022-10-13T05:56:05.990Z,51.90
2022-10-13T05:59:16.292Z,51.10
2022-10-13T06:02:31.446Z,51.50
2022-10-13T06:05:40.657Z,51.40
2022-10-13T06:08:48.468Z,51.30
2022-10-13T06:11:56.439Z,51.20
2022-10-13T06:15:06.516Z,51.20
2022-10-13T06:18:14.655Z,51.20
2022-10-13T06:21:22.568Z,51.20
2022-10-13T06:24:30.675Z,51.20
2022-10-13T06:27:38.671Z,51.10
2022-10-13T06:30:53.285Z,51.10
2022-10-13T06:34:03.139Z,51.00
2022-10-13T06:37:11.092Z,51.00
2022-10-13T06:40:19.178Z,51.00
2022-10-13T06:43:34.377Z,51.10
2022-10-13T06:46:48.909Z,51.00
2022-10-13T06:49:57.077Z,50.90
2022-10-13T06:53:04.800Z,50.90
2022-10-13T06:56:12.876Z,50.90
2022-10-13T06:59:21.264Z,50.80
2022-10-13T07:02:30.778Z,50.80
2022-10-13T07:05:38.873Z,50.80
2022-10-13T07:08:47.082Z,50.80
2022-10-13T07:11:56.422Z,50.80
2022-10-13T07:15:04.662Z,50.80
2022-10-13T07:18:13.876Z,50.80
2022-10-13T07:21:22.727Z,50.80
2022-10-13T07:24:30.793Z,50.70
2022-10-13T07:27:40.751Z,50.80
2022-10-13T07:30:48.865Z,50.80
2022-10-13T07:33:59.575Z,50.80
2022-10-13T07:37:09.373Z,50.70
2022-10-13T07:40:19.569Z,50.80
2022-10-13T07:43:27.793Z,50.80
2022-10-13T07:46:36.561Z,50.90
2022-10-13T07:49:45.889Z,51.00
2022-10-13T07:52:53.753Z,50.90
2022-10-13T07:56:01.961Z,50.90
2022-10-13T07:59:10.006Z,51.00
2022-10-13T08:02:18.323Z,51.00
2022-10-13T08:05:27.805Z,51.00
2022-10-13T08:08:36.065Z,51.00
2022-10-13T08:11:43.930Z,51.00
2022-10-13T08:14:52.083Z,51.10
2022-10-13T08:17:59.902Z,51.10
2022-10-13T08:21:39.254Z,51.10
2022-10-13T08:24:38.905Z,51.10
2022-10-13T08:27:51.590Z,51.00
2022-10-13T08:31:00.444Z,51.00
2022-10-13T08:34:08.624Z,51.00
2022-10-13T08:37:18.995Z,51.00
2022-10-13T08:40:27.077Z,50.90
2022-10-13T08:43:35.231Z,51.00
2022-10-13T08:46:47.125Z,51.00
2022-10-13T08:49:59.967Z,51.00
2022-10-13T08:53:13.361Z,51.00
2022-10-13T08:56:27.978Z,51.00
2022-10-13T08:59:35.849Z,51.00
2022-10-13T09:02:43.901Z,51.00
2022-10-13T09:06:04.073Z,51.00
2022-10-13T09:09:14.337Z,51.00
2022-10-13T09:12:24.972Z,51.00
2022-10-13T09:15:32.789Z,51.00
2022-10-13T09:18:40.746Z,51.00
2022-10-13T09:21:56.968Z,50.90
2022-10-13T09:25:11.651Z,50.90
2022-10-13T09:28:21.739Z,50.90
2022-10-13T09:31:30.487Z,50.90
2022-10-13T09:34:38.269Z,50.80
2022-10-13T09:37:46.840Z,50.90
2022-10-13T09:41:01.666Z,50.80
2022-10-13T09:44:15.195Z,50.80
2022-10-13T09:47:23.242Z,51.50
2022-10-13T09:50:31.943Z,50.90
2022-10-13T09:53:40.916Z,50.90
2022-10-13T09:56:51.691Z,50.90
2022-10-13T10:00:06.302Z,50.90
2022-10-13T10:03:21.120Z,50.80
2022-10-13T10:06:29.228Z,50.90
2022-10-13T10:09:39.058Z,50.90
2022-10-13T10:12:50.729Z,50.90
2022-10-13T10:16:01.921Z,50.90
2022-10-13T10:19:14.255Z,50.90
2022-10-13T10:22:26.938Z,51.00
2022-10-13T10:25:36.999Z,50.90
2022-10-13T10:29:03.204Z,51.00
2022-10-13T10:32:23.716Z,50.90
2022-10-13T10:35:39.780Z,51.00
2022-10-13T10:38:51.643Z,51.00
2022-10-13T10:42:03.140Z,51.00
2022-10-13T10:45:17.318Z,51.00
2022-10-13T10:48:26.969Z,51.20
2022-10-13T10:51:37.613Z,51.00
2022-10-13T10:54:49.555Z,51.10
2022-10-13T10:58:02.030Z,51.10
2022-10-13T11:01:20.798Z,51.10
2022-10-13T11:04:40.190Z,51.20
2022-10-13T11:07:58.663Z,51.30
2022-10-13T11:11:40.237Z,51.20
2022-10-13T11:15:05.698Z,51.20
2022-10-13T11:19:05.658Z,51.20
2022-10-13T11:22:23.273Z,51.20
2022-10-13T11:25:41.213Z,51.20
2022-10-13T11:28:50.167Z,51.20
2022-10-13T11:31:58.061Z,51.20
2022-10-13T11:35:19.670Z,51.20
2022-10-13T11:38:30.526Z,51.10
2022-10-13T11:41:42.814Z,51.10
2022-10-13T11:44:54.223Z,51.10
2022-10-13T11:48:32.512Z,51.10
2022-10-13T11:51:53.080Z,51.10
2022-10-13T11:55:05.016Z,51.10
2022-10-13T11:58:16.128Z,51.10
2022-10-13T12:01:24.266Z,51.10
2022-10-13T12:04:32.445Z,51.10
2022-10-13T12:07:41.156Z,51.10
2022-10-13T12:10:57.182Z,51.10
2022-10-13T12:14:06.587Z,51.10
2022-10-13T12:17:23.670Z,51.00
2022-10-13T12:20:32.986Z,51.10
2022-10-13T12:23:41.082Z,51.10
2022-10-13T12:26:50.183Z,51.10
2022-10-13T12:29:58.146Z,51.10
2022-10-13T12:33:19.692Z,51.10
2022-10-13T12:36:30.362Z,51.60
2022-10-13T12:39:38.629Z,51.10
2022-10-13T12:42:48.591Z,51.00
2022-10-13T12:45:56.556Z,51.10
2022-10-13T12:49:07.962Z,51.10
2022-10-13T12:52:17.639Z,51.10
2022-10-13T12:55:27.627Z,51.10
2022-10-13T12:58:36.973Z,51.20
2022-10-13T13:01:45.066Z,51.20
2022-10-13T13:04:52.790Z,51.20
2022-10-13T13:08:01.246Z,51.20
2022-10-13T13:11:21.330Z,51.20
2022-10-13T13:14:38.841Z,51.20
2022-10-13T13:17:57.671Z,51.20
2022-10-13T13:21:07.546Z,51.20
2022-10-13T13:24:28.208Z,51.20
2022-10-13T13:27:43.199Z,51.20
2022-10-13T13:30:54.320Z,51.20
2022-10-13T13:34:02.186Z,51.80
2022-10-13T13:37:23.633Z,51.20
2022-10-13T13:40:31.521Z,51.20
2022-10-13T13:43:39.737Z,51.20
2022-10-13T13:46:48.759Z,51.30
2022-10-13T13:49:57.202Z,51.20
2022-10-13T13:53:05.400Z,51.20
2022-10-13T13:56:13.818Z,51.30
2022-10-13T13:59:21.842Z,51.70
2022-10-13T14:02:35.859Z,51.30
2022-10-13T14:05:43.777Z,51.30
2022-10-13T14:08:52.179Z,51.20
2022-10-13T14:12:00.092Z,51.30
2022-10-13T14:15:09.249Z,51.30
2022-10-13T14:18:18.687Z,51.20
2022-10-13T14:21:26.723Z,51.30
2022-10-13T14:24:38.203Z,51.30
2022-10-13T14:27:47.679Z,51.20
2022-10-13T14:30:56.482Z,51.20
2022-10-13T14:34:05.956Z,51.20
2022-10-13T14:37:14.031Z,51.20
2022-10-13T14:40:22.053Z,51.20
2022-10-13T14:43:30.204Z,51.20
2022-10-13T14:46:38.438Z,51.20
2022-10-13T14:49:47.810Z,51.10
2022-10-13T14:52:55.739Z,51.10
2022-10-13T14:56:04.359Z,51.10
2022-10-13T14:59:14.077Z,51.10
2022-10-13T15:02:23.008Z,51.10
2022-10-13T15:05:35.006Z,51.00
2022-10-13T15:08:42.884Z,51.10
2022-10-13T15:11:50.904Z,51.00
2022-10-13T15:14:59.140Z,51.10
2022-10-13T15:18:07.030Z,51.10
2022-10-13T15:21:16.280Z,51.10
2022-10-13T15:24:24.276Z,51.00
2022-10-13T15:27:36.897Z,51.10
2022-10-13T15:30:47.536Z,51.00
2022-10-13T15:33:57.957Z,51.00
2022-10-13T15:37:07.890Z,51.00
2022-10-13T15:40:15.753Z,51.00
2022-10-13T15:43:23.835Z,51.00
2022-10-13T15:46:31.933Z,51.10
2022-10-13T15:49:40.017Z,51.00
2022-10-13T15:52:49.470Z,51.10
2022-10-13T15:55:57.197Z,51.10
2022-10-13T15:59:05.237Z,51.10
2022-10-13T16:02:13.231Z,51.10
2022-10-13T16:05:21.258Z,51.10
2022-10-13T16:08:30.746Z,51.10
2022-10-13T16:11:38.556Z,51.10
2022-10-13T16:14:46.620Z,51.10
2022-10-13T16:17:54.797Z,51.10
2022-10-13T16:21:09.144Z,51.20
2022-10-13T16:24:18.376Z,51.20
2022-10-13T16:27:26.423Z,51.10
2022-10-13T16:30:37.151Z,51.10
2022-10-13T16:33:45.448Z,51.10
2022-10-13T16:36:53.193Z,51.20
2022-10-13T16:40:02.706Z,51.20
2022-10-13T16:43:10.647Z,51.20
2022-10-13T16:46:21.249Z,51.20
2022-10-13T16:49:29.362Z,51.20
2022-10-13T16:52:37.838Z,51.20
2022-10-13T16:55:47.393Z,51.30
2022-10-13T16:58:58.153Z,51.30
2022-10-13T17:02:06.068Z,51.30
2022-10-13T17:05:14.176Z,51.30
2022-10-13T17:08:22.143Z,51.20
2022-10-13T17:11:31.896Z,51.30
2022-10-13T17:14:39.797Z,51.30
2022-10-13T17:17:47.893Z,51.30
2022-10-13T17:20:57.261Z,51.30
2022-10-13T17:24:05.616Z,51.40
2022-10-13T17:27:16.339Z,51.40
2022-10-13T17:30:24.555Z,51.30
2022-10-13T17:33:33.713Z,51.30
2022-10-13T17:36:41.574Z,51.30
2022-10-13T17:39:49.619Z,51.30
2022-10-13T17:42:59.017Z,51.30
2022-10-13T17:46:35.036Z,51.30
2022-10-13T17:49:39.325Z,51.90
2022-10-13T17:52:47.296Z,51.30
2022-10-13T17:55:59.858Z,51.30
2022-10-13T17:59:09.822Z,51.30
2022-10-13T18:02:18.887Z,51.30
2022-10-13T18:05:26.927Z,51.30
2022-10-13T18:08:35.056Z,51.30
2022-10-13T18:11:48.808Z,51.30
2022-10-13T18:14:59.564Z,51.30
2022-10-13T18:18:07.526Z,51.30
2022-10-13T18:21:16.535Z,51.30
2022-10-13T18:24:27.727Z,51.20
2022-10-13T18:27:36.734Z,51.30
2022-10-13T18:30:45.919Z,51.20
2022-10-13T18:33:54.770Z,51.20
2022-10-13T18:37:05.485Z,51.20
2022-10-13T18:40:13.585Z,51.20
2022-10-13T18:43:21.784Z,51.20
2022-10-13T18:46:31.164Z,51.20
2022-10-13T18:49:39.186Z,51.20
2022-10-13T18:52:47.192Z,51.20
2022-10-13T18:56:02.166Z,51.20
2022-10-13T18:59:11.154Z,51.20
2022-10-13T19:02:20.483Z,51.20
2022-10-13T19:05:28.358Z,51.20
2022-10-13T19:08:38.239Z,51.20
2022-10-13T19:11:46.166Z,51.20
2022-10-13T19:14:57.941Z,51.20
2022-10-13T19:18:08.576Z,51.20
2022-10-13T19:21:16.504Z,51.40
2022-10-13T19:24:24.405Z,51.40
2022-10-13T19:27:32.259Z,51.40
2022-10-13T19:30:40.610Z,51.40
2022-10-13T19:33:50.413Z,51.50
2022-10-13T19:36:58.996Z,51.50
2022-10-13T19:40:07.949Z,51.50
2022-10-13T19:43:16.221Z,51.50
2022-10-13T19:46:23.920Z,51.60
2022-10-13T19:49:33.241Z,51.70
2022-10-13T19:52:41.483Z,51.70
2022-10-13T19:55:49.347Z,51.70
2022-10-13T19:58:57.047Z,51.70
2022-10-13T20:02:05.166Z,51.70
2022-10-13T20:05:14.454Z,51.70
2022-10-13T20:08:22.729Z,51.80
2022-10-13T20:11:30.554Z,51.90
2022-10-13T20:14:38.686Z,51.90
2022-10-13T20:17:46.726Z,51.90
2022-10-13T20:20:56.198Z,52.00
2022-10-13T20:24:04.531Z,52.00
2022-10-13T20:27:12.415Z,52.00
2022-10-13T20:30:20.302Z,52.00
2022-10-13T20:33:28.418Z,52.00
2022-10-13T20:36:39.264Z,52.00
2022-10-13T20:39:48.070Z,52.10
2022-10-13T20:42:55.837Z,52.20
2022-10-13T20:46:04.405Z,52.20
2022-10-13T20:49:13.437Z,52.10
2022-10-13T20:52:23.033Z,52.10
2022-10-13T20:55:30.993Z,52.30
2022-10-13T20:58:41.095Z,52.20
2022-10-13T21:01:48.846Z,52.10
2022-10-13T21:04:56.748Z,52.20
2022-10-13T21:08:06.637Z,52.20
2022-10-13T21:11:15.676Z,52.20
2022-10-13T21:14:23.821Z,52.20
2022-10-13T21:17:31.910Z,52.20
2022-10-13T21:20:41.907Z,52.10
2022-10-13T21:23:52.224Z,52.10
2022-10-13T21:27:00.159Z,52.20
2022-10-13T21:30:09.212Z,52.10
2022-10-13T21:33:17.366Z,52.20
2022-10-13T21:36:26.276Z,52.10
2022-10-13T21:39:35.721Z,52.10
2022-10-13T21:42:43.804Z,52.70
2022-10-13T21:45:51.917Z,52.40
2022-10-13T21:49:00.631Z,52.20
2022-10-13T21:52:08.428Z,52.00
2022-10-13T21:55:18.182Z,52.10
2022-10-13T21:58:25.916Z,52.00
2022-10-13T22:01:34.363Z,52.00
2022-10-13T22:04:43.237Z,52.00
2022-10-13T22:07:51.415Z,52.00
2022-10-13T22:11:00.884Z,52.00
2022-10-13T22:14:09.242Z,51.90
2022-10-13T22:17:17.043Z,51.90
2022-10-13T22:20:25.299Z,52.00
2022-10-13T22:23:33.489Z,52.00
2022-10-13T22:26:43.535Z,52.00
2022-10-13T22:29:51.722Z,52.00
2022-10-13T22:32:59.822Z,52.00
2022-10-13T22:36:08.870Z,52.00
2022-10-13T22:39:17.289Z,52.00
2022-10-13T22:42:26.414Z,52.10
2022-10-13T22:45:34.409Z,52.10
2022-10-13T22:48:42.466Z,52.10
2022-10-13T22:51:50.572Z,52.10
2022-10-13T22:54:58.858Z,52.20
2022-10-13T22:58:08.383Z,52.20
2022-10-13T23:01:16.787Z,52.20
2022-10-13T23:04:25.135Z,52.30
2022-10-13T23:07:33.113Z,52.30
2022-10-13T23:10:41.313Z,52.30
2022-10-13T23:13:50.742Z,52.40
2022-10-13T23:16:58.777Z,52.50
2022-10-13T23:20:07.810Z,52.70
2022-10-13T23:23:16.197Z,52.90
2022-10-13T23:26:24.154Z,53.40
2022-10-13T23:29:33.882Z,53.60
2022-10-13T23:32:42.086Z,53.60
2022-10-13T23:35:55.395Z,53.60
2022-10-13T23:39:04.325Z,53.70
2022-10-13T23:42:12.319Z,53.80
2022-10-13T23:45:21.767Z,53.70
2022-10-13T23:48:29.967Z,53.80
2022-10-13T23:51:38.283Z,53.70
2022-10-13T23:54:46.083Z,53.70
2022-10-13T23:57:54.639Z,53.70
